Salinas, California
Current Conditions -  °F | °C
As of 3:53 AM on Saturday 25 Oct 2014 (Local Time) from KSNS Reporting Station
Scattered Clouds Scattered Clouds  
Wind Chill: 57°   Ceiling: Unl
Heat Index: 57°   Visibility: 10mi
Dew Point: 53°   Wind: 15mph
Humidity: 87%   Direction: 130°SE
Pressure: 29.96"   Gusts: NA
Location:  36.67°N, 121.65°W
Report Text: KSNS 251053Z AUTO 13013KT 10SM SCT048 14/12 A2996 RMK AO2 SLP153 T01390117
Loading
Personal Weather Stations






























Interactive Weather Map
Tropical Storm Tracking
New forecast layout! Learn more

10-Day Weather Forecast

Advertisements
Track Severe Weather on mobile